Time;durP1;ratioP1;P1;durP2;ratioP2;P2;SDS_P1;SDS_P2;PMS_P1;PMS_P2;Temp;Humidity;BMP_temperature;BMP_pressure;BME280_temperature;BME280_humidity;BME280_pressure;Samples;Min_cycle;Max_cycle;Signal;HPM_P1;HPM_P2
2022/03/16 00:01:40;;;;;;;26.73;15.68;;;;;;;;;;4584869;30;20244;-80
2022/03/16 00:05:54;;;;;;;23.48;16.70;;;;;;;;;;5191498;27;20484;-78
2022/03/16 00:08:20;;;;;;;25.77;17.60;;;;;;;;;;5175788;27;20595;-80
2022/03/16 00:10:46;;;;;;;32.72;19.80;;;;;;;;;;5114495;27;20200;-79
2022/03/16 00:13:12;;;;;;;27.92;19.20;;;;;;;;;;5117815;28;20207;-80
2022/03/16 00:15:38;;;;;;;27.15;20.27;;;;;;;;;;5105257;27;20200;-78
2022/03/16 00:18:04;;;;;;;29.90;21.37;;;;;;;;;;4995088;28;20751;-79
2022/03/16 00:20:30;;;;;;;28.20;20.10;;;;;;;;;;4908752;28;20440;-78
2022/03/16 00:22:56;;;;;;;30.33;21.70;;;;;;;;;;4810356;29;20207;-80
2022/03/16 00:25:23;;;;;;;28.40;20.63;;;;;;;;;;4636602;30;20241;-78
2022/03/16 00:29:19;;;;;;;27.80;18.90;;;;;;;;;;5192960;27;20484;-79
2022/03/16 00:31:45;;;;;;;25.65;20.60;;;;;;;;;;5187863;27;20188;-79
2022/03/16 00:34:11;;;;;;;30.60;20.50;;;;;;;;;;5192009;27;20200;-78
2022/03/16 00:36:37;;;;;;;30.25;21.65;;;;;;;;;;5184783;27;20200;-79
2022/03/16 00:39:04;;;;;;;29.42;22.25;;;;;;;;;;5124163;27;20660;-78
2022/03/16 00:41:30;;;;;;;30.42;21.42;;;;;;;;;;5047736;28;20649;-78
2022/03/16 00:43:56;;;;;;;32.72;22.65;;;;;;;;;;4978024;28;20203;-80
2022/03/16 00:46:22;;;;;;;35.42;22.10;;;;;;;;;;4888765;29;20298;-78
2022/03/16 00:48:48;;;;;;;33.77;22.20;;;;;;;;;;4691036;29;21019;-78
2022/03/16 00:53:15;;;;;;;33.53;22.40;;;;;;;;;;5192795;27;20491;-78
2022/03/16 00:55:41;;;;;;;31.13;21.77;;;;;;;;;;5187456;27;20275;-79
2022/03/16 00:58:07;;;;;;;32.70;23.05;;;;;;;;;;5171770;27;20208;-79
2022/03/16 01:00:33;;;;;;;36.83;22.63;;;;;;;;;;5110241;28;20191;-78
2022/03/16 01:02:59;;;;;;;32.13;22.73;;;;;;;;;;5120286;28;20499;-79
2022/03/16 01:05:25;;;;;;;35.80;22.77;;;;;;;;;;5051747;28;20202;-77
2022/03/16 01:07:51;;;;;;;38.27;23.00;;;;;;;;;;4921498;28;20480;-79
2022/03/16 01:10:17;;;;;;;34.97;23.45;;;;;;;;;;4851862;29;20954;-79
2022/03/16 01:12:43;;;;;;;37.97;25.30;;;;;;;;;;4686176;29;20239;-78
2022/03/16 01:17:12;;;;;;;41.80;24.95;;;;;;;;;;5179924;27;20490;-77
2022/03/16 01:19:39;;;;;;;35.92;25.00;;;;;;;;;;5187667;27;20198;-78
2022/03/16 01:22:06;;;;;;;34.10;23.65;;;;;;;;;;5174722;27;20230;-78
2022/03/16 01:24:32;;;;;;;34.28;24.63;;;;;;;;;;5166571;27;20206;-78
2022/03/16 01:26:58;;;;;;;32.90;21.98;;;;;;;;;;5127194;27;20218;-77
2022/03/16 01:29:25;;;;;;;40.47;24.67;;;;;;;;;;5005507;28;20202;-78
2022/03/16 01:31:56;;;;;;;39.88;25.45;;;;;;;;;;4962495;28;20645;-79
2022/03/16 01:34:23;;;;;;;33.25;24.25;;;;;;;;;;4839427;29;20993;-79
2022/03/16 01:39:24;;;;;;;36.65;23.80;;;;;;;;;;5192999;27;20294;-78
2022/03/16 01:41:50;;;;;;;31.30;22.53;;;;;;;;;;5168374;27;20193;-78
2022/03/16 01:44:16;;;;;;;33.33;22.85;;;;;;;;;;5169755;27;20793;-79
2022/03/16 01:46:42;;;;;;;31.23;22.13;;;;;;;;;;5133252;27;20206;-78
2022/03/16 01:49:08;;;;;;;29.40;20.10;;;;;;;;;;5073724;28;20271;-78
2022/03/16 01:51:35;;;;;;;32.92;22.30;;;;;;;;;;5027355;28;20275;-79
2022/03/16 01:54:01;;;;;;;26.48;18.98;;;;;;;;;;4861147;29;20272;-77
2022/03/16 01:56:27;;;;;;;29.85;19.65;;;;;;;;;;4803932;29;20614;-79
2022/03/16 01:58:53;;;;;;;23.63;19.33;;;;;;;;;;4612611;30;20298;-79
2022/03/16 02:02:51;;;;;;;25.23;17.90;;;;;;;;;;5192786;27;21000;-79
2022/03/16 02:05:17;;;;;;;25.70;17.83;;;;;;;;;;5186228;27;20192;-78
2022/03/16 02:07:43;;;;;;;27.27;18.57;;;;;;;;;;5134214;27;20964;-78
2022/03/16 02:10:10;;;;;;;23.73;17.73;;;;;;;;;;5137747;27;20958;-79
2022/03/16 02:12:43;;;;;;;26.50;19.40;;;;;;;;;;5122506;27;20193;-79
2022/03/16 02:15:10;;;;;;;22.98;16.88;;;;;;;;;;5061413;28;20261;-81
2022/03/16 02:17:36;;;;;;;26.25;18.23;;;;;;;;;;5052819;28;20218;-79
2022/03/16 02:20:02;;;;;;;27.15;20.60;;;;;;;;;;4907711;28;20198;-78
2022/03/16 02:22:29;;;;;;;22.98;17.80;;;;;;;;;;4840123;29;20301;-79
2022/03/16 02:26:46;;;;;;;28.17;19.00;;;;;;;;;;5183284;27;20505;-78
2022/03/16 02:29:13;;;;;;;27.80;17.90;;;;;;;;;;5187483;27;20181;-78
2022/03/16 02:31:39;;;;;;;28.20;19.55;;;;;;;;;;5192113;27;20184;-78
2022/03/16 02:34:05;;;;;;;27.30;18.67;;;;;;;;;;5174478;27;20202;-78
2022/03/16 02:36:31;;;;;;;27.23;19.90;;;;;;;;;;5103345;28;20999;-78
2022/03/16 02:38:57;;;;;;;24.73;17.90;;;;;;;;;;5075230;28;20485;-80
2022/03/16 02:41:23;;;;;;;25.10;18.07;;;;;;;;;;5041325;28;20448;-80
2022/03/16 02:43:49;;;;;;;22.23;18.05;;;;;;;;;;4950710;28;20433;-77
2022/03/16 02:48:59;;;;;;;25.50;18.98;;;;;;;;;;5193221;27;20484;-79
2022/03/16 02:51:25;;;;;;;26.90;19.55;;;;;;;;;;5187969;27;20204;-78
2022/03/16 02:53:52;;;;;;;24.38;19.63;;;;;;;;;;5192047;27;20189;-78
2022/03/16 02:56:19;;;;;;;28.95;20.83;;;;;;;;;;5185795;27;20247;-79
2022/03/16 02:58:45;;;;;;;31.67;20.70;;;;;;;;;;5114367;27;20192;-79
2022/03/16 03:01:11;;;;;;;32.10;20.77;;;;;;;;;;5117787;28;20243;-77
2022/03/16 03:03:37;;;;;;;33.90;22.67;;;;;;;;;;5055581;28;23440;-77
2022/03/16 03:06:03;;;;;;;36.40;22.07;;;;;;;;;;5054157;28;20236;-78
2022/03/16 03:08:29;;;;;;;41.83;24.40;;;;;;;;;;4975000;28;20479;-78
2022/03/16 03:13:11;;;;;;;42.47;25.55;;;;;;;;;;5193122;27;20476;-79
2022/03/16 03:15:37;;;;;;;48.17;26.35;;;;;;;;;;5187681;27;20184;-80
2022/03/16 03:18:03;;;;;;;48.53;27.00;;;;;;;;;;5154070;27;21021;-80
2022/03/16 03:20:29;;;;;;;42.60;27.63;;;;;;;;;;5140428;27;20278;-79
2022/03/16 03:22:55;;;;;;;52.10;30.15;;;;;;;;;;5147719;27;20225;-79
2022/03/16 03:25:22;;;;;;;44.33;27.25;;;;;;;;;;5104906;27;20584;-80
2022/03/16 03:27:48;;;;;;;38.78;26.05;;;;;;;;;;5095185;28;20203;-80
2022/03/16 03:30:13;;;;;;;46.47;25.47;;;;;;;;;;5068741;28;20223;-81
2022/03/16 03:32:40;;;;;;;44.13;25.20;;;;;;;;;;4872487;29;20487;-78
2022/03/16 03:37:44;;;;;;;35.15;22.70;;;;;;;;;;5175629;27;20490;-79
2022/03/16 03:40:11;;;;;;;34.10;23.85;;;;;;;;;;5187957;27;20506;-79
2022/03/16 03:42:37;;;;;;;35.67;23.80;;;;;;;;;;5191853;27;20188;-78
2022/03/16 03:45:03;;;;;;;33.17;24.52;;;;;;;;;;5191499;27;20193;-79
2022/03/16 03:47:29;;;;;;;36.30;23.42;;;;;;;;;;5129899;27;20213;-78
2022/03/16 03:49:55;;;;;;;35.60;25.67;;;;;;;;;;5019786;28;20198;-79
2022/03/16 03:52:21;;;;;;;38.10;27.20;;;;;;;;;;5071147;28;20449;-80
2022/03/16 03:54:47;;;;;;;35.38;24.88;;;;;;;;;;5023675;28;20926;-79
2022/03/16 03:57:12;;;;;;;39.77;24.57;;;;;;;;;;4910613;28;20327;-80
2022/03/16 04:01:56;;;;;;;46.42;29.80;;;;;;;;;;5192664;27;20488;-78
2022/03/16 04:04:22;;;;;;;46.58;30.27;;;;;;;;;;5168603;27;20217;-81
2022/03/16 04:06:48;;;;;;;54.33;32.65;;;;;;;;;;5182563;27;20200;-80
2022/03/16 04:09:14;;;;;;;51.15;31.38;;;;;;;;;;5168408;27;20185;-80
2022/03/16 04:11:40;;;;;;;49.50;26.85;;;;;;;;;;5092382;28;20259;-78
2022/03/16 04:14:06;;;;;;;48.20;28.07;;;;;;;;;;5043953;28;20195;-79
2022/03/16 04:16:33;;;;;;;44.95;27.23;;;;;;;;;;5010635;28;20453;-79
2022/03/16 04:18:59;;;;;;;47.53;27.00;;;;;;;;;;4966525;28;20201;-81
2022/03/16 04:21:25;;;;;;;40.63;23.77;;;;;;;;;;4836242;29;20308;-80
2022/03/16 04:26:07;;;;;;;40.10;22.00;;;;;;;;;;5147819;27;20852;-80
2022/03/16 04:28:33;;;;;;;40.45;24.52;;;;;;;;;;5117740;27;20639;-81
2022/03/16 04:31:03;;;;;;;43.77;25.50;;;;;;;;;;5116057;27;20192;-80
2022/03/16 04:33:29;;;;;;;45.03;27.08;;;;;;;;;;5126581;28;20506;-80
2022/03/16 04:35:55;;;;;;;45.95;25.05;;;;;;;;;;5117490;28;20211;-80
2022/03/16 04:38:21;;;;;;;45.35;25.33;;;;;;;;;;5065160;28;20742;-78
2022/03/16 04:40:47;;;;;;;45.67;27.80;;;;;;;;;;5089330;28;20289;-78
2022/03/16 04:43:13;;;;;;;47.95;27.58;;;;;;;;;;5041748;28;20438;-78
2022/03/16 04:45:39;;;;;;;51.10;29.30;;;;;;;;;;4924370;28;20229;-78
2022/03/16 04:50:34;;;;;;;61.80;29.85;;;;;;;;;;5193126;27;20480;-78
2022/03/16 04:53:00;;;;;;;53.78;30.05;;;;;;;;;;5187910;27;20551;-77
2022/03/16 04:55:26;;;;;;;56.88;29.75;;;;;;;;;;5187029;27;20653;-79
2022/03/16 04:57:52;;;;;;;62.38;30.25;;;;;;;;;;5126065;27;20207;-80
2022/03/16 05:00:17;;;;;;;64.47;31.20;;;;;;;;;;5101288;28;20653;-78
2022/03/16 05:02:44;;;;;;;60.63;30.23;;;;;;;;;;4986378;28;20791;-78
2022/03/16 05:05:10;;;;;;;63.88;30.23;;;;;;;;;;4995769;28;20425;-81
2022/03/16 05:07:37;;;;;;;65.03;32.70;;;;;;;;;;4934495;28;20275;-80
2022/03/16 05:10:04;;;;;;;68.80;28.77;;;;;;;;;;4809829;29;20249;-79
2022/03/16 05:14:59;;;;;;;58.60;30.48;;;;;;;;;;5193078;27;20635;-80
2022/03/16 05:17:25;;;;;;;58.60;29.97;;;;;;;;;;5153569;27;20210;-79
2022/03/16 05:19:51;;;;;;;65.80;29.90;;;;;;;;;;5151251;27;20999;-80
2022/03/16 05:22:17;;;;;;;64.60;30.20;;;;;;;;;;5150308;27;20439;-80
2022/03/16 05:24:43;;;;;;;67.50;28.00;;;;;;;;;;5122513;27;20586;-80
2022/03/16 05:27:09;;;;;;;72.40;30.38;;;;;;;;;;5115132;28;20452;-79
2022/03/16 05:29:35;;;;;;;59.90;28.40;;;;;;;;;;5044726;28;20200;-79
2022/03/16 05:32:01;;;;;;;68.10;30.92;;;;;;;;;;4934304;28;20458;-80
2022/03/16 05:34:27;;;;;;;65.57;29.92;;;;;;;;;;4768072;29;20596;-80
2022/03/16 05:38:41;;;;;;;76.60;32.33;;;;;;;;;;5192921;27;20628;-80
2022/03/16 05:41:07;;;;;;;68.57;31.35;;;;;;;;;;5185591;27;20188;-80
2022/03/16 05:43:33;;;;;;;70.78;31.92;;;;;;;;;;5189598;27;20189;-79
2022/03/16 05:46:01;;;;;;;73.67;33.60;;;;;;;;;;5176516;27;20188;-81
2022/03/16 05:48:27;;;;;;;75.07;34.30;;;;;;;;;;5128630;27;20425;-79
2022/03/16 05:50:53;;;;;;;61.87;28.70;;;;;;;;;;5078110;28;20280;-81
2022/03/16 05:53:19;;;;;;;71.57;30.20;;;;;;;;;;5078243;28;20437;-80
2022/03/16 05:55:45;;;;;;;72.30;32.80;;;;;;;;;;5064815;28;20895;-81
2022/03/16 05:58:11;;;;;;;67.38;33.15;;;;;;;;;;4995577;28;20520;-81
2022/03/16 06:03:11;;;;;;;65.03;32.22;;;;;;;;;;5193000;27;20287;-79
2022/03/16 06:05:37;;;;;;;77.75;34.35;;;;;;;;;;5187546;27;20185;-79
2022/03/16 06:08:03;;;;;;;64.95;33.60;;;;;;;;;;5171895;27;20232;-79
2022/03/16 06:10:29;;;;;;;70.22;33.92;;;;;;;;;;5170083;27;20200;-80
2022/03/16 06:13:00;;;;;;;65.97;32.73;;;;;;;;;;5107492;27;20188;-80
2022/03/16 06:15:27;;;;;;;65.70;32.63;;;;;;;;;;5069340;28;20437;-80
2022/03/16 06:17:55;;;;;;;60.42;31.05;;;;;;;;;;5017039;28;20219;-81
2022/03/16 06:20:21;;;;;;;68.38;35.03;;;;;;;;;;4998403;28;20269;-80
2022/03/16 06:22:47;;;;;;;72.25;36.47;;;;;;;;;;4953560;28;20554;-80
2022/03/16 06:27:23;;;;;;;62.28;33.13;;;;;;;;;;5178138;27;20490;-79
2022/03/16 06:29:49;;;;;;;58.13;34.30;;;;;;;;;;5170514;27;20637;-79
2022/03/16 06:32:15;;;;;;;62.53;35.30;;;;;;;;;;5172277;27;20494;-79
2022/03/16 06:34:41;;;;;;;53.53;31.00;;;;;;;;;;5166802;27;20534;-79
2022/03/16 06:37:07;;;;;;;56.30;33.17;;;;;;;;;;5147642;27;20438;-79
2022/03/16 06:39:33;;;;;;;63.20;38.50;;;;;;;;;;5106404;28;20525;-80
2022/03/16 06:41:59;;;;;;;60.43;35.67;;;;;;;;;;5134250;27;20435;-80
2022/03/16 06:44:25;;;;;;;54.97;32.03;;;;;;;;;;5131693;27;20428;-79
2022/03/16 06:46:51;;;;;;;55.10;32.90;;;;;;;;;;5100255;28;20491;-80
2022/03/16 06:52:05;;;;;;;53.17;33.05;;;;;;;;;;5192418;27;20848;-79
2022/03/16 06:54:31;;;;;;;53.47;32.97;;;;;;;;;;5187675;27;20188;-80
2022/03/16 06:56:57;;;;;;;51.60;31.08;;;;;;;;;;5154809;27;20216;-79
2022/03/16 06:59:23;;;;;;;54.53;30.30;;;;;;;;;;5156071;27;20220;-80
2022/03/16 07:01:49;;;;;;;50.23;31.57;;;;;;;;;;5138949;27;20431;-80
2022/03/16 07:04:15;;;;;;;50.03;31.40;;;;;;;;;;5130891;27;20946;-79
2022/03/16 07:06:41;;;;;;;50.50;30.80;;;;;;;;;;5102622;28;20449;-80
2022/03/16 07:09:07;;;;;;;53.27;30.33;;;;;;;;;;5059991;28;20426;-79
2022/03/16 07:11:33;;;;;;;65.07;30.17;;;;;;;;;;4939446;28;20978;-81
2022/03/16 07:16:32;;;;;;;49.67;31.65;;;;;;;;;;5186057;27;20312;-79
2022/03/16 07:18:58;;;;;;;49.53;28.88;;;;;;;;;;5188168;27;20188;-81
2022/03/16 07:21:24;;;;;;;53.20;28.83;;;;;;;;;;5192212;27;20195;-81
2022/03/16 07:23:50;;;;;;;47.97;31.02;;;;;;;;;;5162613;27;20436;-80
2022/03/16 07:26:16;;;;;;;51.60;30.57;;;;;;;;;;5121713;27;20214;-80
2022/03/16 07:28:42;;;;;;;44.60;27.33;;;;;;;;;;5120020;28;20437;-80
2022/03/16 07:31:08;;;;;;;51.60;30.53;;;;;;;;;;5089652;28;20542;-79
2022/03/16 07:33:35;;;;;;;55.75;32.13;;;;;;;;;;5086832;28;20881;-79
2022/03/16 07:36:01;;;;;;;47.10;29.08;;;;;;;;;;4981825;28;20315;-81
2022/03/16 07:41:07;;;;;;;47.05;29.92;;;;;;;;;;5192950;27;20482;-80
2022/03/16 07:43:33;;;;;;;53.97;31.33;;;;;;;;;;5168630;27;20197;-79
2022/03/16 07:45:59;;;;;;;48.10;30.50;;;;;;;;;;5169987;27;20437;-79
2022/03/16 07:48:26;;;;;;;48.43;30.00;;;;;;;;;;5170637;27;20871;-81
2022/03/16 07:50:52;;;;;;;52.80;28.90;;;;;;;;;;5122447;27;20820;-80
2022/03/16 07:53:18;;;;;;;51.78;28.40;;;;;;;;;;5074282;28;20252;-79
2022/03/16 07:55:48;;;;;;;42.70;26.90;;;;;;;;;;4986828;28;20203;-80
2022/03/16 07:58:14;;;;;;;45.42;28.13;;;;;;;;;;4977311;28;20437;-79
2022/03/16 08:00:40;;;;;;;39.63;27.20;;;;;;;;;;4923047;28;20228;-80
2022/03/16 08:06:03;;;;;;;39.50;26.00;;;;;;;;;;5190205;27;20505;-80
2022/03/16 08:08:30;;;;;;;39.67;25.85;;;;;;;;;;5186617;27;20196;-79
2022/03/16 08:10:56;;;;;;;35.60;24.30;;;;;;;;;;5171053;27;20273;-80
2022/03/16 08:13:22;;;;;;;34.97;23.73;;;;;;;;;;5170458;27;20665;-78
2022/03/16 08:15:49;;;;;;;31.90;22.30;;;;;;;;;;5129605;27;20434;-79
2022/03/16 08:18:15;;;;;;;28.20;18.58;;;;;;;;;;5103751;27;20820;-80
2022/03/16 08:20:41;;;;;;;28.07;19.53;;;;;;;;;;5144811;27;20182;-80
2022/03/16 08:23:07;;;;;;;31.67;21.10;;;;;;;;;;5132038;27;20441;-80
2022/03/16 08:25:33;;;;;;;28.00;20.83;;;;;;;;;;5021610;28;20576;-80
2022/03/16 08:30:38;;;;;;;25.30;19.35;;;;;;;;;;5193054;27;20473;-80
2022/03/16 08:33:04;;;;;;;27.20;18.80;;;;;;;;;;5187864;27;20196;-79
2022/03/16 08:35:30;;;;;;;24.10;18.27;;;;;;;;;;5191814;27;20421;-80
2022/03/16 08:37:56;;;;;;;23.90;17.30;;;;;;;;;;5172477;27;20867;-81
2022/03/16 08:40:22;;;;;;;22.08;15.75;;;;;;;;;;5118276;27;20260;-79
2022/03/16 08:42:49;;;;;;;21.52;16.27;;;;;;;;;;5057367;28;20235;-81
2022/03/16 08:45:15;;;;;;;20.13;15.50;;;;;;;;;;5106005;28;20274;-75
2022/03/16 08:47:43;;;;;;;19.65;13.93;;;;;;;;;;5100958;28;20203;-76
2022/03/16 08:50:09;;;;;;;18.75;14.98;;;;;;;;;;4955238;28;20218;-75
2022/03/16 08:54:50;;;;;;;18.20;14.15;;;;;;;;;;5192853;27;20480;-81
2022/03/16 08:57:16;;;;;;;19.52;14.75;;;;;;;;;;5174320;27;20233;-80
2022/03/16 08:59:42;;;;;;;17.52;14.23;;;;;;;;;;5171053;27;20189;-78
2022/03/16 09:02:09;;;;;;;17.05;14.50;;;;;;;;;;5161688;27;20191;-79
2022/03/16 09:04:35;;;;;;;14.93;13.30;;;;;;;;;;5109884;28;20203;-79
2022/03/16 09:07:04;;;;;;;17.08;12.95;;;;;;;;;;5043480;28;20212;-81
2022/03/16 09:09:30;;;;;;;15.25;12.23;;;;;;;;;;5025786;28;20234;-79
2022/03/16 09:11:56;;;;;;;12.68;11.23;;;;;;;;;;4930114;28;20634;-78
2022/03/16 09:14:22;;;;;;;13.57;11.10;;;;;;;;;;4864468;29;20229;-79
2022/03/16 09:19:26;;;;;;;14.20;11.37;;;;;;;;;;5151072;27;20486;-81
2022/03/16 09:21:52;;;;;;;13.50;11.23;;;;;;;;;;5146064;27;20415;-79
2022/03/16 09:24:18;;;;;;;12.47;10.90;;;;;;;;;;5128006;27;20525;-81
2022/03/16 09:26:45;;;;;;;10.30;9.30;;;;;;;;;;5120261;28;20441;-77
2022/03/16 09:29:11;;;;;;;11.33;9.87;;;;;;;;;;5077790;28;20423;-79
2022/03/16 09:31:38;;;;;;;12.07;10.30;;;;;;;;;;5070638;28;20472;-77
2022/03/16 09:34:07;;;;;;;12.23;10.10;;;;;;;;;;5057546;28;21218;-80
2022/03/16 09:36:42;;;;;;;12.00;10.70;;;;;;;;;;5002793;28;20506;-80
2022/03/16 09:39:08;;;;;;;14.17;10.87;;;;;;;;;;4900112;28;20479;-81
2022/03/16 09:43:55;;;;;;;11.33;9.60;;;;;;;;;;5183229;27;20475;-76
2022/03/16 09:46:31;;;;;;;11.00;9.90;;;;;;;;;;5181038;27;20439;-78
2022/03/16 09:48:58;;;;;;;11.57;10.37;;;;;;;;;;5173505;27;20430;-77
2022/03/16 09:51:25;;;;;;;12.23;10.53;;;;;;;;;;5139508;27;20432;-78
2022/03/16 09:53:52;;;;;;;12.53;10.50;;;;;;;;;;5100353;28;20993;-79
2022/03/16 09:56:19;;;;;;;11.03;9.93;;;;;;;;;;5100008;28;21143;-80
2022/03/16 09:58:45;;;;;;;10.70;9.47;;;;;;;;;;5050863;28;20440;-77
2022/03/16 10:01:11;;;;;;;12.00;9.33;;;;;;;;;;4907242;28;20501;-80
2022/03/16 10:03:37;;;;;;;11.63;10.07;;;;;;;;;;4789665;29;20496;-77
2022/03/16 10:08:37;;;;;;;11.70;9.17;;;;;;;;;;5192922;27;20484;-80
2022/03/16 10:13:57;;;;;;;11.37;9.23;;;;;;;;;;5146086;27;20572;-79
2022/03/16 10:16:23;;;;;;;9.77;8.77;;;;;;;;;;5028222;28;21041;-78
2022/03/16 10:18:54;;;;;;;10.60;9.30;;;;;;;;;;4992635;28;20427;-78
2022/03/16 10:21:21;;;;;;;11.30;9.43;;;;;;;;;;4936130;29;20408;-78
2022/03/16 10:23:47;;;;;;;10.10;9.00;;;;;;;;;;4919508;29;20416;-79
2022/03/16 10:26:17;;;;;;;14.83;9.63;;;;;;;;;;4867528;29;20938;-78
2022/03/16 10:28:45;;;;;;;9.80;8.80;;;;;;;;;;4818172;29;20489;-77
2022/03/16 10:32:34;;;;;;;9.90;7.40;;;;;;;;;;5192869;27;20473;-77
2022/03/16 10:35:06;;;;;;;9.23;8.33;;;;;;;;;;5187647;27;20448;-79
2022/03/16 10:37:39;;;;;;;9.37;8.37;;;;;;;;;;5176268;27;20816;-77
2022/03/16 10:40:15;;;;;;;9.30;8.40;;;;;;;;;;5129033;27;20427;-76
2022/03/16 10:48:14;;;;;;;9.17;8.27;;;;;;;;;;4996942;28;20428;-81
2022/03/16 10:50:41;;;;;;;9.20;8.30;;;;;;;;;;4932189;28;20542;-78
2022/03/16 10:56:03;;;;;;;9.27;8.17;;;;;;;;;;5189724;27;20485;-77
2022/03/16 10:58:30;;;;;;;8.27;7.30;;;;;;;;;;5187640;27;20480;-79
2022/03/16 11:00:57;;;;;;;10.03;8.00;;;;;;;;;;5189421;27;20421;-79
2022/03/16 11:03:25;;;;;;;10.67;8.53;;;;;;;;;;5159407;27;20475;-78
2022/03/16 11:05:52;;;;;;;9.47;8.47;;;;;;;;;;5140868;27;20409;-79
2022/03/16 11:08:19;;;;;;;9.10;8.10;;;;;;;;;;5048006;28;20894;-79
2022/03/16 11:10:46;;;;;;;9.90;8.90;;;;;;;;;;5040853;28;20786;-78
2022/03/16 11:13:32;;;;;;;8.77;7.87;;;;;;;;;;5003063;28;20449;-75
2022/03/16 11:15:59;;;;;;;8.43;7.63;;;;;;;;;;4757014;29;20434;-78
2022/03/16 11:20:32;;;;;;;8.10;7.37;;;;;;;;;;5193043;27;20480;-78
2022/03/16 11:26:03;;;;;;;9.17;8.20;;;;;;;;;;5126456;27;20514;-78
2022/03/16 11:28:50;;;;;;;9.43;7.77;;;;;;;;;;5076132;28;20421;-81
2022/03/16 11:31:16;;;;;;;8.30;7.30;;;;;;;;;;5058073;28;20398;-79
2022/03/16 11:33:50;;;;;;;7.80;7.00;;;;;;;;;;5060169;28;20416;-77
2022/03/16 11:36:31;;;;;;;8.47;7.67;;;;;;;;;;5018345;28;20520;-76
2022/03/16 11:38:58;;;;;;;8.33;7.20;;;;;;;;;;4907883;28;20478;-77
2022/03/16 11:41:25;;;;;;;8.77;7.87;;;;;;;;;;4819393;29;20455;-78
2022/03/16 11:45:37;;;;;;;9.30;8.40;;;;;;;;;;5189840;27;20480;-75
2022/03/16 11:48:21;;;;;;;7.23;6.53;;;;;;;;;;5150213;27;20446;-74
2022/03/16 11:51:07;;;;;;;7.67;6.93;;;;;;;;;;5150747;27;20419;-75
2022/03/16 11:53:58;;;;;;;10.80;8.20;;;;;;;;;;5144416;27;20383;-76
2022/03/16 11:56:27;;;;;;;7.33;6.63;;;;;;;;;;5077902;28;20492;-76
2022/03/16 11:59:02;;;;;;;9.30;7.00;;;;;;;;;;5123906;28;20429;-75
2022/03/16 12:01:37;;;;;;;9.03;7.60;;;;;;;;;;5049875;28;20524;-77
2022/03/16 12:04:19;;;;;;;10.53;7.40;;;;;;;;;;5058420;28;20496;-76
2022/03/16 12:10:10;;;;;;;8.60;7.53;;;;;;;;;;5192635;27;20852;-77
2022/03/16 12:12:58;;;;;;;6.57;5.87;;;;;;;;;;5168125;27;20446;-78
2022/03/16 12:15:24;;;;;;;9.70;6.90;;;;;;;;;;5143855;27;20889;-78
2022/03/16 12:17:55;;;;;;;8.33;7.43;;;;;;;;;;5099212;28;20945;-76
2022/03/16 12:20:22;;;;;;;7.30;6.60;;;;;;;;;;5078911;28;20390;-77
2022/03/16 12:22:49;;;;;;;7.70;6.90;;;;;;;;;;5042000;28;20524;-76
2022/03/16 12:25:27;;;;;;;7.73;6.83;;;;;;;;;;5035115;28;20428;-77
2022/03/16 12:33:39;;;;;;;7.20;6.53;;;;;;;;;;5192605;27;20496;-76
2022/03/16 12:36:11;;;;;;;7.47;6.77;;;;;;;;;;5146647;27;20517;-76
2022/03/16 12:38:39;;;;;;;8.47;7.57;;;;;;;;;;5154027;27;20397;-75
2022/03/16 12:43:52;;;;;;;8.50;6.63;;;;;;;;;;5098411;28;20426;-76
2022/03/16 12:46:25;;;;;;;6.30;5.70;;;;;;;;;;5118731;28;20856;-75
2022/03/16 12:48:54;;;;;;;6.27;5.70;;;;;;;;;;5033294;28;20904;-76
2022/03/16 12:51:33;;;;;;;6.27;5.67;;;;;;;;;;4914506;29;20499;-74
2022/03/16 12:53:59;;;;;;;6.40;5.80;;;;;;;;;;4843984;29;20450;-76
2022/03/16 12:58:52;;;;;;;7.53;6.73;;;;;;;;;;5191621;27;20645;-76
2022/03/16 13:01:19;;;;;;;7.23;6.53;;;;;;;;;;5187842;27;20484;-77
2022/03/16 13:03:45;;;;;;;7.30;6.60;;;;;;;;;;5191307;27;20812;-75
2022/03/16 13:06:18;;;;;;;6.30;5.70;;;;;;;;;;5186926;27;20414;-76
2022/03/16 13:08:49;;;;;;;8.00;6.00;;;;;;;;;;5152447;27;20477;-77
2022/03/16 13:11:19;;;;;;;13.87;6.53;;;;;;;;;;5150049;27;20800;-77
2022/03/16 13:13:46;;;;;;;7.80;7.00;;;;;;;;;;5151448;27;20783;-76
2022/03/16 13:16:29;;;;;;;7.40;6.60;;;;;;;;;;5141699;27;20486;-76
2022/03/16 13:18:55;;;;;;;8.13;7.33;;;;;;;;;;5053833;28;20438;-78
2022/03/16 13:24:07;;;;;;;9.00;6.57;;;;;;;;;;5192264;27;20290;-78
2022/03/16 13:26:34;;;;;;;8.43;6.93;;;;;;;;;;5163970;27;20457;-78
2022/03/16 13:29:02;;;;;;;6.97;6.37;;;;;;;;;;5171076;27;20547;-80
2022/03/16 13:31:29;;;;;;;8.20;7.13;;;;;;;;;;5170344;27;20438;-80
2022/03/16 13:33:55;;;;;;;7.63;6.93;;;;;;;;;;5115929;27;20496;-78
2022/03/16 13:36:32;;;;;;;7.63;6.93;;;;;;;;;;5102084;28;20452;-79
2022/03/16 13:38:58;;;;;;;7.03;6.33;;;;;;;;;;5007731;28;20442;-78
2022/03/16 13:41:24;;;;;;;8.13;6.83;;;;;;;;;;5052221;28;20460;-79
2022/03/16 13:44:01;;;;;;;7.37;6.53;;;;;;;;;;5011189;28;20514;-79
2022/03/16 13:49:14;;;;;;;8.90;7.17;;;;;;;;;;5192678;27;20506;-78
2022/03/16 13:51:59;;;;;;;6.83;6.13;;;;;;;;;;5152398;27;20949;-77
2022/03/16 13:54:26;;;;;;;6.87;6.17;;;;;;;;;;5168751;27;20426;-76
2022/03/16 13:56:54;;;;;;;7.40;6.53;;;;;;;;;;5160695;27;20514;-76
2022/03/16 13:59:20;;;;;;;6.70;6.00;;;;;;;;;;5157079;27;20419;-77
2022/03/16 14:01:46;;;;;;;8.17;6.80;;;;;;;;;;5184430;27;20408;-76
2022/03/16 14:04:19;;;;;;;7.60;6.37;;;;;;;;;;5177711;27;20427;-78
2022/03/16 14:06:47;;;;;;;7.27;6.50;;;;;;;;;;5128535;27;20488;-77
2022/03/16 14:09:13;;;;;;;6.93;6.20;;;;;;;;;;5046078;28;20430;-78
2022/03/16 14:14:10;;;;;;;8.60;7.23;;;;;;;;;;5192952;27;20295;-77
2022/03/16 14:16:37;;;;;;;7.50;6.50;;;;;;;;;;5162913;27;20443;-75
2022/03/16 14:19:03;;;;;;;9.03;7.33;;;;;;;;;;5150742;27;20480;-77
2022/03/16 14:21:30;;;;;;;7.87;6.53;;;;;;;;;;5145739;27;20439;-78
2022/03/16 14:23:56;;;;;;;7.47;6.00;;;;;;;;;;5136492;27;20441;-75
2022/03/16 14:26:22;;;;;;;9.13;6.57;;;;;;;;;;5120789;27;20434;-75
2022/03/16 14:28:48;;;;;;;6.00;5.50;;;;;;;;;;5145594;27;20912;-78
2022/03/16 14:31:14;;;;;;;6.50;5.90;;;;;;;;;;5121525;27;20440;-77
2022/03/16 14:33:40;;;;;;;6.20;5.57;;;;;;;;;;5116963;28;21120;-75
2022/03/16 14:38:46;;;;;;;7.30;6.00;;;;;;;;;;5192806;27;21032;-77
2022/03/16 14:41:12;;;;;;;7.43;6.73;;;;;;;;;;5187790;27;20431;-78
2022/03/16 14:43:38;;;;;;;7.27;6.27;;;;;;;;;;5169705;27;20507;-79
2022/03/16 14:46:05;;;;;;;6.90;5.57;;;;;;;;;;5167420;27;20426;-78
2022/03/16 14:48:31;;;;;;;8.27;5.90;;;;;;;;;;5096997;28;20427;-79
2022/03/16 14:50:56;;;;;;;7.40;5.90;;;;;;;;;;5095740;27;20434;-79
2022/03/16 14:53:23;;;;;;;7.13;6.17;;;;;;;;;;5133438;27;20430;-78
2022/03/16 14:55:49;;;;;;;7.73;6.10;;;;;;;;;;5117019;27;20427;-77
2022/03/16 14:58:15;;;;;;;9.63;7.07;;;;;;;;;;5012053;28;20476;-77
2022/03/16 15:03:11;;;;;;;10.47;7.63;;;;;;;;;;5193232;27;20481;-76
2022/03/16 15:05:41;;;;;;;11.13;7.20;;;;;;;;;;5187557;27;20429;-78
2022/03/16 15:08:07;;;;;;;7.63;6.10;;;;;;;;;;5152077;27;20923;-76
2022/03/16 15:10:33;;;;;;;8.23;6.30;;;;;;;;;;5130866;27;20440;-75
2022/03/16 15:12:59;;;;;;;8.00;6.20;;;;;;;;;;5138172;27;20440;-79
2022/03/16 15:15:25;;;;;;;6.93;6.10;;;;;;;;;;5088539;28;20438;-75
2022/03/16 15:17:51;;;;;;;7.40;6.27;;;;;;;;;;5037670;28;20901;-78
2022/03/16 15:20:17;;;;;;;6.53;5.90;;;;;;;;;;5010145;28;20436;-77
2022/03/16 15:22:43;;;;;;;7.93;7.13;;;;;;;;;;5034586;28;20555;-75
2022/03/16 15:27:47;;;;;;;7.77;6.97;;;;;;;;;;5175101;27;20498;-76
2022/03/16 15:30:13;;;;;;;7.27;6.47;;;;;;;;;;5187558;27;20426;-75
2022/03/16 15:32:39;;;;;;;7.27;6.50;;;;;;;;;;5172167;27;20438;-77
2022/03/16 15:35:06;;;;;;;7.90;6.67;;;;;;;;;;5167452;27;20460;-76
2022/03/16 15:37:32;;;;;;;7.40;6.30;;;;;;;;;;5143155;27;20446;-78
2022/03/16 15:42:43;;;;;;;6.70;6.00;;;;;;;;;;5117355;28;21027;-78
2022/03/16 15:45:10;;;;;;;7.10;6.40;;;;;;;;;;5071624;28;20406;-77
2022/03/16 15:47:36;;;;;;;8.63;6.47;;;;;;;;;;5031357;28;20490;-76
2022/03/16 15:52:13;;;;;;;15.23;6.87;;;;;;;;;;5192960;27;20481;-77
2022/03/16 15:54:41;;;;;;;8.73;7.20;;;;;;;;;;5187835;27;20423;-78
2022/03/16 15:57:08;;;;;;;7.77;6.50;;;;;;;;;;5179739;27;20450;-77
2022/03/16 15:59:34;;;;;;;10.60;6.80;;;;;;;;;;5150472;27;20421;-75
2022/03/16 16:02:03;;;;;;;8.47;6.90;;;;;;;;;;5126046;27;20459;-77
2022/03/16 16:04:30;;;;;;;7.77;6.90;;;;;;;;;;5067020;28;20423;-77
2022/03/16 16:06:57;;;;;;;7.50;6.53;;;;;;;;;;5049950;28;20874;-77
2022/03/16 16:09:23;;;;;;;9.13;7.47;;;;;;;;;;4995304;28;20432;-77
2022/03/16 16:11:49;;;;;;;7.53;6.70;;;;;;;;;;4924064;29;20545;-78
2022/03/16 16:17:24;;;;;;;8.23;7.20;;;;;;;;;;5178249;27;20503;-78
2022/03/16 16:19:50;;;;;;;9.63;8.03;;;;;;;;;;5187535;27;20425;-76
2022/03/16 16:22:16;;;;;;;13.70;8.00;;;;;;;;;;5191736;27;20423;-74
2022/03/16 16:24:43;;;;;;;7.87;7.07;;;;;;;;;;5191473;27;20418;-77